Demo 6

Misión y Visión

La misión es proporcionar información fiable a la navegación aérea, contribuyendo a la seguridad, regularidad y eficiencia de la Navegación Aérea Internacional

La visión es contribuir sustancialmente al desarrollo de conocimientos y a la utilización de la meteorología aeronáutica a nivel nacional e internacional, mediante la innovación y la coparticipación con sectores sociales y productivos de la sociedad.

 
  Inicio
  Metar
  Taf
  Wintemp
  SIGMET
  Avisos
  Pronósticos
  Carpeta Meteorologica
  Imágenes Satelitales
  Climatología Aeronáutica
   
  ¿Quienes Somos?
  Contacto
  Eventos



DIRECCIONES PARA INFORMES NACIONALES E INTERNACIONALES
(Metar /Speci - TAF)



http://adds.aviationweather.gov/tafs/index.php

http://www.ogimet.com/metars.phtml



PRONÓSTICOS DE AERÓDROMO

Cuando sea necesario, el encabezamiento abreviado puede incluir un cuarto grupo consistente en tres letras para identificar los boletines demorados (RRA), corregidos(CCA) o enmendados (AAA). Los boletines adicionales demorados, corregidos o enmendados deben identificarse con las letras RRB, RRC, etc.; CCB, CCC,etc.;AAB, AAC,etc.



ESTACIONES DESCRIPCION
MPTO (M) 171900Z 18008KT 150V240 9999 SCT18 34/22 Q1012 NOSIG=  
MPBO (M)  
MPCH (M) 180000Z 05004KT 9999 FEW030 28/24 Q1015  
MPSA (M)  
MPCE (M)  
MPPN (M) 171800Z 36012KT(E) 9000 SCT018 RMK HZ ALQDS=  
MPSM (M)  
MPJE (M)  
MPPA (M) 180000Z 35010KT 9999 FEW020 28/22 Q1010  
MPMG (M) 180000Z 32008KT 9999 FEW018 29/22 Q1010 NOSIG  
MPDA (M) 180000Z 20006KT 9000 SCT020 28/24 Q1009 RMK FU ALQDS  
MPVR (M) 171800Z 34006KT(E) 9000 SCT025 SCT100 RMK HZ ALQDS=  
MPWN (M)  
MPOA (M)  
MPMF (M)  
MPEJ (M) 171900Z 35012KT 9000 SCT018 31/23 Q1011 RMK HZ ALQDS=  


CLIMATICAS

MPTO

16 FEBRERO 2019

PCPN (mm)

T° MAX

T° MIN

VIENTO MAX (KT)

HORA

VIENTO PREDOM (KT)

0.0

34.9

21.3

18009KT

2000Z

VRB03

CLIMATICAS

MPMG

17-FEBRERO-2019

PCPN (mm)

T° MAX T° MIN VIENTO MAX (KT) HORA VIENTO PREDOM (KT)
0.0 33.7

23.8

35015KT

1800Z

NNW

 

 
 

Found

The document has moved here.